Time;durP1;ratioP1;P1;durP2;ratioP2;P2;SDS_P1;SDS_P2;PMS_P1;PMS_P2;Temp;Humidity;BMP_temperature;BMP_pressure;BME280_temperature;BME280_humidity;BME280_pressure;Samples;Min_cycle;Max_cycle;Signal;HPM_P1;HPM_P2
2021/11/14 00:02:18;;;;;;;18.80;17.10;;;;;;;;;;5097569;28;20404;-89
2021/11/14 00:04:46;;;;;;;18.30;16.40;;;;;;;;;;5097248;28;20415;-88
2021/11/14 00:07:17;;;;;;;18.53;16.73;;;10.00;99.90;;;;;;5097553;28;20408;-89
2021/11/14 00:09:43;;;;;;;19.27;16.30;;;;;;;;;;5095667;28;20407;-89
2021/11/14 00:12:09;;;;;;;19.17;17.23;;;10.00;99.90;;;;;;5095007;28;20400;-89
2021/11/14 00:14:35;;;;;;;18.10;16.30;;;;;;;;;;5094897;28;20431;-89
2021/11/14 00:17:01;;;;;;;19.57;17.57;;;;;;;;;;5096051;28;20408;-90
2021/11/14 00:19:27;;;;;;;20.07;17.07;;;;;;;;;;5078311;28;20415;-90
2021/11/14 00:21:53;;;;;;;19.30;17.17;;;10.00;99.90;;;;;;5098328;28;20404;-88
2021/11/14 00:24:18;;;;;;;17.50;15.73;;;7.90;99.90;;;;;;5095093;28;20423;-90
2021/11/14 00:26:44;;;;;;;19.63;17.50;;;10.90;99.90;;;;;;5094611;28;20720;-90
2021/11/14 00:29:10;;;;;;;17.40;15.60;;;;;;;;;;5093893;28;20174;-90
2021/11/14 00:31:37;;;;;;;22.00;17.60;;;10.10;99.90;;;;;;5076265;28;20217;-89
2021/11/14 00:34:05;;;;;;;17.03;15.40;;;;;;;;;;5094420;28;20944;-89
2021/11/14 00:36:32;;;;;;;18.13;16.33;;;10.10;99.90;;;;;;5076054;28;20474;-90
2021/11/14 00:38:58;;;;;;;16.77;15.18;;;;;;;;;;5094257;28;20420;-90
2021/11/14 00:41:25;;;;;;;17.37;15.77;;;10.10;99.90;;;;;;5094682;28;20169;-89
2021/11/14 00:43:51;;;;;;;19.77;15.67;;;;;;;;;;5093855;28;20407;-90
2021/11/14 00:46:17;;;;;;;18.93;16.00;;;10.10;99.90;;;;;;5094640;28;21037;-89
2021/11/14 00:48:44;;;;;;;16.57;15.07;;;;;;;;;;5100727;28;20497;-89
2021/11/14 00:51:17;;;;;;;18.07;16.47;;;10.10;99.90;;;;;;5094962;28;20407;-90
2021/11/14 00:53:43;;;;;;;17.73;15.80;;;9.80;99.90;;;;;;5099079;28;20840;-89
2021/11/14 00:56:09;;;;;;;17.73;15.90;;;;;;;;;;5080054;28;20467;-90
2021/11/14 00:58:35;;;;;;;17.83;16.13;;;;;;;;;;5098043;28;20162;-90
2021/11/14 01:01:01;;;;;;;17.87;16.03;;;9.90;99.90;;;;;;5097991;28;20773;-90
2021/11/14 01:03:27;;;;;;;21.43;17.30;;;9.20;99.90;;;;;;5079645;28;20491;-90
2021/11/14 01:05:53;;;;;;;24.43;17.70;;;;;;;;;;5098022;28;20466;-89
2021/11/14 01:08:19;;;;;;;18.70;16.80;;;;;;;;;;5097781;28;20173;-90
2021/11/14 01:10:49;;;;;;;20.70;18.60;;;10.00;99.90;;;;;;5098307;28;20170;-90
2021/11/14 01:13:17;;;;;;;19.10;16.47;;;10.00;99.90;;;;;;5098484;28;20404;-90
2021/11/14 01:15:45;;;;;;;18.27;16.40;;;10.00;99.90;;;;;;5079716;28;20415;-89
2021/11/14 01:18:12;;;;;;;19.30;17.20;;;10.00;99.90;;;;;;5079609;28;20431;-89
2021/11/14 01:20:40;;;;;;;19.63;17.57;;;9.90;99.90;;;;;;5097922;28;20404;-89
2021/11/14 01:23:08;;;;;;;18.07;16.13;;;9.90;99.90;;;;;;5097826;28;20440;-89
2021/11/14 01:25:35;;;;;;;18.80;16.90;;;9.90;99.90;;;;;;5078728;28;20455;-90
2021/11/14 01:28:00;;;;;;;21.05;16.58;;;9.40;99.90;;;;;;5096770;28;20408;-89
2021/11/14 01:30:29;;;;;;;20.33;18.13;;;9.80;99.90;;;;;;5096873;28;20185;-90
2021/11/14 01:32:57;;;;;;;19.30;17.40;;;8.50;99.90;;;;;;5078592;28;20499;-89
2021/11/14 01:35:23;;;;;;;21.07;18.47;;;9.90;99.90;;;;;;5096666;28;20194;-90
2021/11/14 01:37:50;;;;;;;21.50;18.17;;;9.80;99.90;;;;;;5096512;28;20415;-89
2021/11/14 01:40:24;;;;;;;21.03;18.00;;;9.90;99.90;;;;;;5078381;28;20922;-89
2021/11/14 01:42:50;;;;;;;20.37;16.80;;;9.90;99.90;;;;;;5078425;28;20451;-89
2021/11/14 01:45:17;;;;;;;19.23;17.00;;;10.70;99.90;;;;;;5096528;28;20509;-90
2021/11/14 01:47:43;;;;;;;19.30;17.20;;;9.50;99.90;;;;;;5077826;28;20412;-90
2021/11/14 01:50:12;;;;;;;19.80;17.80;;;8.70;99.90;;;;;;5096542;28;20415;-90
2021/11/14 01:52:39;;;;;;;18.60;16.70;;;9.90;99.90;;;;;;5097030;28;20787;-90
2021/11/14 01:55:06;;;;;;;19.63;17.27;;;9.30;99.90;;;;;;5096378;28;20465;-90
2021/11/14 01:57:32;;;;;;;20.67;18.57;;;10.00;99.90;;;;;;5078160;28;20783;-90
2021/11/14 01:59:58;;;;;;;18.00;15.60;;;12.80;99.90;;;;;;5097503;28;20408;-89
2021/11/14 02:02:24;;;;;;;19.27;17.07;;;;;;;;;;5080741;28;20177;-89
2021/11/14 02:04:50;;;;;;;19.53;17.50;;;;;;;;;;5079990;28;20240;-88
2021/11/14 02:07:18;;;;;;;16.80;15.10;;;10.00;99.90;;;;;;5098424;28;20489;-89
2021/11/14 02:09:44;;;;;;;18.10;16.37;;;;;;;;;;5078386;28;20419;-89
2021/11/14 02:12:11;;;;;;;20.30;17.53;;;10.10;99.90;;;;;;5077773;28;20488;-90
2021/11/14 02:14:37;;;;;;;20.63;17.03;;;10.00;99.90;;;;;;5096202;28;20426;-89
2021/11/14 02:17:04;;;;;;;20.97;16.30;;;10.20;99.90;;;;;;5095807;28;20911;-89
2021/11/14 02:19:30;;;;;;;21.00;18.17;;;10.00;99.90;;;;;;5095666;28;20413;-90
2021/11/14 02:21:56;;;;;;;26.17;18.63;;;;;;;;;;5095745;28;20538;-89
2021/11/14 02:24:22;;;;;;;21.47;19.13;;;;;;;;;;5095374;28;20192;-89
2021/11/14 02:26:48;;;;;;;23.17;19.50;;;;;;;;;;5077498;28;20528;-89
2021/11/14 02:29:15;;;;;;;20.30;17.10;;;10.00;99.90;;;;;;5095764;28;20403;-90
2021/11/14 02:31:41;;;;;;;22.23;19.67;;;10.00;99.90;;;;;;5077126;28;20524;-89
2021/11/14 02:34:08;;;;;;;24.40;19.93;;;;;;;;;;5095369;28;20408;-91
2021/11/14 02:36:33;;;;;;;24.07;19.40;;;10.00;99.90;;;;;;5077361;28;20408;-89
2021/11/14 02:38:59;;;;;;;22.60;20.20;;;9.50;99.90;;;;;;5096106;28;20918;-89
2021/11/14 02:41:25;;;;;;;22.90;20.43;;;;;;;;;;5077726;28;20178;-90
2021/11/14 02:43:52;;;;;;;25.17;20.90;;;9.90;99.90;;;;;;5077313;28;20609;-89
2021/11/14 02:46:18;;;;;;;22.13;19.73;;;;;;;;;;5077154;28;20510;-90
2021/11/14 02:48:45;;;;;;;24.77;19.10;;;9.90;99.90;;;;;;5077004;28;20432;-89
2021/11/14 02:51:16;;;;;;;24.90;21.07;;;9.20;99.90;;;;;;5077370;28;20416;-90
2021/11/14 02:53:42;;;;;;;21.40;19.27;;;8.90;99.90;;;;;;5095111;28;20392;-89
2021/11/14 02:56:09;;;;;;;25.70;19.73;;;9.70;99.90;;;;;;5094946;28;21104;-90
2021/11/14 02:58:36;;;;;;;27.30;22.17;;;8.70;99.90;;;;;;5095047;28;20403;-90
2021/11/14 03:01:13;;;;;;;23.33;19.73;;;10.50;99.90;;;;;;5094989;28;20435;-89
2021/11/14 03:03:40;;;;;;;25.20;21.03;;;9.90;99.90;;;;;;5094834;28;20396;-90
2021/11/14 03:06:06;;;;;;;25.27;21.00;;;9.90;99.90;;;;;;5076634;28;20467;-90
2021/11/14 03:08:33;;;;;;;23.33;19.57;;;;;;;;;;5095240;28;20396;-90
2021/11/14 03:10:59;;;;;;;26.42;19.75;;;;;;;;;;5095844;28;20412;-90
2021/11/14 03:13:25;;;;;;;27.17;19.50;;;9.90;99.90;;;;;;5096049;28;20170;-90
2021/11/14 03:15:54;;;;;;;27.40;19.13;;;9.90;99.90;;;;;;5096351;28;20412;-90
2021/11/14 03:18:21;;;;;;;23.67;20.20;;;7.80;99.90;;;;;;5096742;28;20407;-90
2021/11/14 03:20:48;;;;;;;22.97;20.03;;;9.10;99.90;;;;;;5079380;28;20423;-89
2021/11/14 03:23:14;;;;;;;26.83;22.03;;;9.30;99.90;;;;;;5078870;28;20914;-90
2021/11/14 03:25:40;;;;;;;26.00;21.50;;;9.70;99.90;;;;;;5076205;28;21035;-90
2021/11/14 03:28:06;;;;;;;28.60;22.07;;;9.70;99.90;;;;;;5076143;28;20416;-90
2021/11/14 03:30:33;;;;;;;30.13;21.83;;;9.50;99.90;;;;;;5094159;28;20210;-89
2021/11/14 03:33:01;;;;;;;29.50;21.73;;;9.80;99.90;;;;;;5076183;28;20173;-90
2021/11/14 03:35:27;;;;;;;29.53;22.00;;;;;;;;;;5094223;28;20887;-90
2021/11/14 03:37:53;;;;;;;25.67;19.40;;;9.80;99.90;;;;;;5094245;28;20412;-90
2021/11/14 03:40:21;;;;;;;29.03;23.73;;;9.80;99.90;;;;;;5075850;28;20412;-89
2021/11/14 03:42:49;;;;;;;27.70;20.57;;;9.30;99.90;;;;;;5075646;28;20983;-89
2021/11/14 03:45:14;;;;;;;26.00;21.93;;;9.70;99.90;;;;;;5075760;28;20974;-89
2021/11/14 03:47:40;;;;;;;28.73;22.60;;;9.60;99.90;;;;;;5093943;28;20427;-89
2021/11/14 03:50:08;;;;;;;25.20;21.60;;;9.60;99.90;;;;;;5093852;28;20166;-89
2021/11/14 03:52:34;;;;;;;25.07;21.30;;;9.80;99.90;;;;;;5093966;28;20588;-89
2021/11/14 03:54:59;;;;;;;27.63;21.00;;;8.50;99.90;;;;;;5093411;28;20488;-89
2021/11/14 03:57:26;;;;;;;30.40;22.13;;;;;;;;;;5093597;28;20416;-88
2021/11/14 03:59:51;;;;;;;27.00;21.17;;;9.80;99.90;;;;;;5075272;28;20174;-89
2021/11/14 04:02:17;;;;;;;26.03;22.37;;;;;;;;;;5075376;28;20177;-89
2021/11/14 04:04:43;;;;;;;27.67;23.20;;;9.90;99.90;;;;;;5093522;28;20158;-89
2021/11/14 04:07:09;;;;;;;32.97;25.30;;;;;;;;;;5093487;28;20217;-88
2021/11/14 04:09:35;;;;;;;31.73;25.83;;;9.60;99.90;;;;;;5075195;28;20181;-88
2021/11/14 04:12:03;;;;;;;33.40;26.70;;;9.10;99.90;;;;;;5093091;28;20507;-89
2021/11/14 04:14:29;;;;;;;32.03;26.30;;;9.00;99.90;;;;;;5075190;28;20174;-89
2021/11/14 04:16:55;;;;;;;34.73;27.13;;;;;;;;;;5093520;28;20299;-89
2021/11/14 04:19:20;;;;;;;34.90;26.13;;;;;;;;;;5093283;28;20503;-89
2021/11/14 04:21:46;;;;;;;38.43;28.33;;;9.20;99.90;;;;;;5075090;28;20416;-89
2021/11/14 04:24:12;;;;;;;44.90;29.27;;;8.60;99.90;;;;;;5093242;28;20734;-89
2021/11/14 04:26:38;;;;;;;45.60;28.90;;;;;;;;;;5092161;28;20263;-88
2021/11/14 04:29:04;;;;;;;48.60;31.67;;;9.10;99.90;;;;;;5074973;28;20170;-87
2021/11/14 04:31:29;;;;;;;59.83;34.77;;;8.80;99.90;;;;;;5074811;28;20550;-88
2021/11/14 04:33:55;;;;;;;54.03;33.87;;;;;;;;;;5093127;28;20499;-88
2021/11/14 04:36:21;;;;;;;47.10;31.93;;;8.90;99.90;;;;;;5074892;28;20231;-88
2021/11/14 04:38:46;;;;;;;53.70;32.07;;;11.70;99.90;;;;;;5093053;28;20415;-89
2021/11/14 04:41:12;;;;;;;47.97;29.23;;;;;;;;;;5093254;28;20174;-89
2021/11/14 04:43:38;;;;;;;43.20;28.40;;;;;;;;;;5075141;28;20172;-88
2021/11/14 04:46:04;;;;;;;42.97;28.17;;;8.80;99.90;;;;;;5092879;28;20974;-89
2021/11/14 04:48:30;;;;;;;38.57;26.83;;;;;;;;;;5074945;28;20478;-89
2021/11/14 04:50:56;;;;;;;48.63;26.90;;;8.90;99.90;;;;;;5075338;28;20170;-89
2021/11/14 04:53:22;;;;;;;44.13;30.40;;;;;;;;;;5092937;28;20508;-88
2021/11/14 04:55:48;;;;;;;44.73;28.93;;;8.90;99.90;;;;;;5092839;28;20643;-88
2021/11/14 04:58:14;;;;;;;41.20;26.70;;;8.80;99.90;;;;;;5074592;28;20419;-89
2021/11/14 05:00:46;;;;;;;38.47;26.55;;;8.50;99.90;;;;;;5092826;28;20174;-89
2021/11/14 05:03:12;;;;;;;37.47;24.95;;;;;;;;;;5092894;28;20198;-89
2021/11/14 05:05:41;;;;;;;34.70;26.37;;;;;;;;;;5074873;28;20193;-88
2021/11/14 05:08:07;;;;;;;35.60;25.70;;;8.80;99.90;;;;;;5074556;28;20894;-86
2021/11/14 05:10:33;;;;;;;38.53;25.90;;;8.10;99.90;;;;;;5074540;28;20412;-88
2021/11/14 05:12:59;;;;;;;34.57;26.47;;;;;;;;;;5074544;28;20788;-88
2021/11/14 05:15:25;;;;;;;36.57;27.63;;;;;;;;;;5092911;28;20400;-88
2021/11/14 05:17:51;;;;;;;49.20;30.83;;;;;;;;;;5092811;28;20407;-88
2021/11/14 05:20:16;;;;;;;45.93;30.97;;;8.80;99.90;;;;;;5074550;28;20166;-88
2021/11/14 05:22:42;;;;;;;50.23;33.10;;;10.20;99.90;;;;;;5074501;28;20419;-88
2021/11/14 05:25:08;;;;;;;44.70;29.00;;;8.60;99.90;;;;;;5092831;28;20171;-88
2021/11/14 05:27:33;;;;;;;41.20;27.47;;;8.70;99.90;;;;;;5092894;28;20207;-88
2021/11/14 05:29:59;;;;;;;44.63;25.60;;;;;;;;;;5092674;28;20408;-88
2021/11/14 05:32:25;;;;;;;43.23;28.90;;;8.60;99.90;;;;;;5092401;28;20251;-88
2021/11/14 05:34:50;;;;;;;50.17;28.13;;;8.40;99.90;;;;;;5074985;28;20497;-89
2021/11/14 05:37:16;;;;;;;39.47;26.50;;;;;;;;;;5075623;28;20184;-88
2021/11/14 05:39:42;;;;;;;40.27;26.30;;;8.40;99.90;;;;;;5078476;28;20646;-89
2021/11/14 05:42:08;;;;;;;42.67;30.13;;;;;;;;;;5078493;28;20420;-88
2021/11/14 05:44:34;;;;;;;45.90;28.90;;;;;;;;;;5078112;28;20419;-88
2021/11/14 05:47:00;;;;;;;43.57;28.73;;;;;;;;;;5077930;28;20521;-89
2021/11/14 05:49:27;;;;;;;53.43;30.47;;;;;;;;;;5078549;28;20903;-89
2021/11/14 05:51:52;;;;;;;57.92;32.65;;;;;;;;;;5078687;28;20446;-88
2021/11/14 05:54:18;;;;;;;56.40;34.17;;;8.30;99.90;;;;;;5096341;28;20166;-87
2021/11/14 05:56:44;;;;;;;67.93;34.70;;;;;;;;;;5096161;28;20412;-88
2021/11/14 05:59:20;;;;;;;68.13;35.50;;;8.30;99.90;;;;;;5096235;28;20185;-87
2021/11/14 06:01:58;;;;;;;67.65;34.88;;;7.90;99.90;;;;;;5096114;28;20469;-89
2021/11/14 06:05:12;;;;;;;62.73;34.47;;;8.00;99.90;;;;;;5095845;28;20180;-88
2021/11/14 06:07:12;;;;;;;69.13;33.17;;;7.90;99.90;;;;;;5089017;28;20886;-88
2021/11/14 06:09:38;;;;;;;69.33;36.40;;;8.30;99.90;;;;;;5099665;28;20186;-88
2021/11/14 06:12:04;;;;;;;59.77;34.90;;;8.30;99.90;;;;;;5085145;28;20240;-88
2021/11/14 06:14:30;;;;;;;67.78;33.20;;;8.50;99.90;;;;;;5110530;28;20169;-89
2021/11/14 06:16:55;;;;;;;71.10;36.50;;;8.70;99.90;;;;;;5102411;28;20158;-88
2021/11/14 06:19:21;;;;;;;59.83;35.40;;;;;;;;;;5108911;28;20212;-88
2021/11/14 06:21:47;;;;;;;67.50;36.60;;;8.60;99.90;;;;;;5111044;28;20166;-90
2021/11/14 06:24:12;;;;;;;67.50;36.47;;;8.30;99.90;;;;;;5106630;28;20416;-88
2021/11/14 06:26:38;;;;;;;62.33;34.27;;;;;;;;;;5107272;28;20212;-88
2021/11/14 06:29:04;;;;;;;49.77;28.07;;;;;;;;;;5101548;28;20173;-88
2021/11/14 06:31:30;;;;;;;62.25;34.08;;;8.40;99.90;;;;;;5099958;28;20459;-88
2021/11/14 06:33:56;;;;;;;60.20;31.47;;;;;;;;;;5081683;28;20609;-88
2021/11/14 06:36:22;;;;;;;49.17;30.20;;;;;;;;;;5079747;28;20268;-88
2021/11/14 06:38:47;;;;;;;50.37;28.73;;;8.20;99.90;;;;;;5097345;28;20412;-88
2021/11/14 06:41:13;;;;;;;48.87;30.73;;;8.20;99.90;;;;;;5081695;28;20420;-89
2021/11/14 06:43:39;;;;;;;48.63;29.13;;;;;;;;;;5097660;28;20307;-89
2021/11/14 06:46:04;;;;;;;48.70;29.30;;;8.10;99.90;;;;;;5097384;28;20206;-88
2021/11/14 06:48:31;;;;;;;41.30;27.13;;;8.30;99.90;;;;;;5078715;28;20818;-89
2021/11/14 06:51:05;;;;;;;39.15;25.40;;;8.60;99.90;;;;;;4643469;28;10002928;-89
2021/11/14 06:53:30;;;;;;;52.33;29.00;;;10.30;99.90;;;;;;5073272;28;20441;-89
2021/11/14 06:55:56;;;;;;;52.87;26.70;;;;;;;;;;5072910;28;20948;-89
2021/11/14 06:58:22;;;;;;;41.47;27.43;;;;;;;;;;5072782;28;20170;-88
2021/11/14 07:00:50;;;;;;;47.80;28.15;;;8.40;99.90;;;;;;5072650;28;20416;-88
2021/11/14 07:03:15;;;;;;;46.27;27.70;;;7.50;99.90;;;;;;5072786;28;20174;-89
2021/11/14 07:05:42;;;;;;;38.53;24.90;;;;;;;;;;5072058;28;20444;-89
2021/11/14 07:08:09;;;;;;;48.28;29.33;;;;;;;;;;5072087;28;20171;-89
2021/11/14 07:10:35;;;;;;;38.53;26.27;;;;;;;;;;5073237;28;20174;-89
2021/11/14 07:13:01;;;;;;;45.70;27.40;;;;;;;;;;5054124;28;20429;-88
2021/11/14 07:15:27;;;;;;;46.53;27.17;;;8.40;99.90;;;;;;5071581;28;20533;-89
2021/11/14 07:17:53;;;;;;;53.33;30.90;;;;;;;;;;5054275;28;20426;-89
2021/11/14 07:20:19;;;;;;;52.67;29.83;;;8.30;99.90;;;;;;5073641;28;20436;-88
2021/11/14 07:22:45;;;;;;;59.47;32.70;;;9.60;99.90;;;;;;5073263;28;20436;-88
2021/11/14 07:25:18;;;;;;;55.20;33.13;;;8.10;99.90;;;;;;5073975;28;20163;-89
2021/11/14 07:27:46;;;;;;;63.58;36.00;;;7.30;99.90;;;;;;5073750;28;20912;-88
2021/11/14 07:30:12;;;;;;;57.50;30.87;;;8.60;99.90;;;;;;5073782;28;20245;-89
2021/11/14 07:32:41;;;;;;;59.97;33.05;;;8.50;99.90;;;;;;5074471;28;20516;-88
2021/11/14 07:35:10;;;;;;;57.85;34.95;;;8.40;99.90;;;;;;5073818;28;20167;-89
2021/11/14 07:37:35;;;;;;;57.38;35.15;;;8.30;99.90;;;;;;5073728;28;20661;-89
2021/11/14 07:40:01;;;;;;;54.60;34.23;;;8.30;99.90;;;;;;5056551;28;20167;-88
2021/11/14 07:42:26;;;;;;;61.30;34.03;;;8.30;99.90;;;;;;5074701;28;20185;-88
2021/11/14 07:44:52;;;;;;;62.20;35.30;;;7.90;99.90;;;;;;5074845;28;20579;-88
2021/11/14 07:47:18;;;;;;;68.13;38.90;;;8.30;99.90;;;;;;5057276;28;20297;-88
2021/11/14 07:49:43;;;;;;;62.87;36.27;;;8.10;99.90;;;;;;5075159;28;20171;-88
2021/11/14 07:52:09;;;;;;;59.13;37.40;;;10.20;99.90;;;;;;5074165;28;20170;-87
2021/11/14 07:54:34;;;;;;;64.23;37.97;;;7.40;99.90;;;;;;5073911;28;20178;-89
2021/11/14 07:57:00;;;;;;;57.30;37.37;;;8.30;99.90;;;;;;5074234;28;20170;-89
2021/11/14 07:59:26;;;;;;;57.00;37.07;;;8.40;99.90;;;;;;5074089;28;20235;-89
2021/11/14 08:01:52;;;;;;;56.50;37.22;;;;;;;;;;5056022;28;20585;-88
2021/11/14 08:04:21;;;;;;;46.13;30.08;;;8.50;99.90;;;;;;5074448;28;20544;-88
2021/11/14 08:06:46;;;;;;;32.00;21.73;;;;;;;;;;5056394;28;20704;-89
2021/11/14 08:09:12;;;;;;;29.17;24.10;;;;;;;;;;5073691;28;20167;-88
2021/11/14 08:11:47;;;;;;;28.00;20.80;;;8.70;99.90;;;;;;5056400;28;20826;-89
2021/11/14 08:14:14;;;;;;;24.15;21.55;;;;;;;;;;5074189;28;20475;-88
2021/11/14 08:16:40;;;;;;;23.17;19.73;;;;;;;;;;5055286;28;20508;-88
2021/11/14 08:19:06;;;;;;;27.20;20.93;;;;;;;;;;5073413;28;20451;-88
2021/11/14 08:21:31;;;;;;;30.87;22.40;;;;;;;;;;5073399;28;20405;-88
2021/11/14 08:23:57;;;;;;;26.70;21.13;;;8.70;99.90;;;;;;5055662;28;20754;-88
2021/11/14 08:26:23;;;;;;;26.53;21.60;;;;;;;;;;5073489;28;20997;-87
2021/11/14 08:28:49;;;;;;;24.43;20.97;;;;;;;;;;5074024;28;20163;-88
2021/11/14 08:31:20;;;;;;;23.63;21.13;;;8.70;99.90;;;;;;5073570;28;20490;-89
2021/11/14 08:33:47;;;;;;;24.80;20.45;;;8.60;99.90;;;;;;4715519;28;9999827;-88
2021/11/14 08:36:14;;;;;;;21.90;19.63;;;8.80;99.90;;;;;;5093478;28;20185;-88
2021/11/14 08:38:40;;;;;;;23.63;18.93;;;;;;;;;;5075313;28;20424;-88
2021/11/14 08:41:05;;;;;;;21.10;18.65;;;9.10;99.90;;;;;;5092135;28;21233;-87
2021/11/14 08:43:32;;;;;;;20.43;17.93;;;;;;;;;;5092305;28;20212;-87
2021/11/14 08:45:58;;;;;;;19.80;17.73;;;;;;;;;;5092130;28;20197;-89
2021/11/14 08:48:25;;;;;;;18.38;16.58;;;8.90;99.90;;;;;;5077294;28;20395;-89
2021/11/14 08:50:54;;;;;;;20.35;18.25;;;8.20;99.90;;;;;;5072068;28;20182;-89
2021/11/14 08:53:20;;;;;;;20.83;18.58;;;;;;;;;;5079666;28;20170;-88
2021/11/14 08:55:46;;;;;;;20.40;18.15;;;;;;;;;;5073921;28;20213;-85
2021/11/14 08:58:12;;;;;;;19.60;17.30;;;9.30;99.90;;;;;;5091241;28;20200;-88
2021/11/14 09:00:38;;;;;;;18.10;16.40;;;;;;;;;;5074394;28;20453;-88
2021/11/14 09:03:05;;;;;;;16.63;14.77;;;9.30;99.90;;;;;;5091427;28;20170;-89
2021/11/14 09:05:34;;;;;;;18.37;16.73;;;10.10;99.90;;;;;;5083612;28;20201;-88
2021/11/14 09:08:02;;;;;;;18.90;17.00;;;9.60;99.90;;;;;;5052359;28;20424;-89
2021/11/14 09:10:28;;;;;;;18.48;16.35;;;10.90;99.90;;;;;;5070207;28;20419;-89
2021/11/14 09:12:59;;;;;;;17.07;15.47;;;9.70;99.90;;;;;;5054452;28;20655;-88
2021/11/14 09:15:29;;;;;;;15.13;13.67;;;12.00;99.90;;;;;;5057074;28;20417;-88
2021/11/14 09:18:08;;;;;;;;;;;;;;;;;;;;;
2021/11/14 09:20:42;;;;;;;18.27;16.40;;;;;;;;;;5074368;28;20458;-88
2021/11/14 09:23:08;;;;;;;16.67;15.07;;;;;;;;;;5074649;28;20844;-89
2021/11/14 09:37:40;;;;;;;;;;;;;;;;;;;;;
2021/11/14 09:40:09;;;;;;;15.07;13.27;;;10.20;99.90;;;;;;5065826;28;20187;-89
2021/11/14 09:43:12;;;;;;;;;;;;;;;;;;;;;
2021/11/14 09:46:00;;;;;;;14.33;13.00;;;13.50;99.90;;;;;;5074118;28;20461;-90
2021/11/14 09:48:57;;;;;;;;;;;;;;;;;;;;;
2021/11/14 09:51:24;;;;;;;13.97;12.67;;;14.90;99.90;;;;;;5041615;28;20874;-88
2021/11/14 09:54:09;;;;;;;14.10;12.80;;;17.80;99.90;;;;;;5060495;28;20843;-90
2021/11/14 10:02:23;;;;;;;14.50;13.30;;;15.60;99.90;;;;;;1533490;22;20728;-91
2021/11/14 10:05:22;;;;;;;11.63;10.73;;;15.60;97.20;;;;;;5053058;28;20494;-89
2021/11/14 10:07:59;;;;;;;13.20;12.20;;;17.30;99.90;;;;;;5014998;28;21036;-87
2021/11/14 10:10:29;;;;;;;14.97;13.57;;;13.50;99.90;;;;;;5014985;28;20419;-87
2021/11/14 10:12:58;;;;;;;13.67;12.40;;;13.00;99.90;;;;;;5032537;28;20493;-88
2021/11/14 10:15:38;;;;;;;;;;;;;;;;;;;;;
2021/11/14 10:18:10;;;;;;;16.83;15.00;;;14.90;99.90;;;;;;5036060;28;20446;-87
2021/11/14 10:23:41;;;;;;;14.87;13.13;;;12.10;99.90;;;;;;5051537;28;20457;-89
2021/11/14 10:26:29;;;;;;;13.43;12.13;;;11.90;99.90;;;;;;5052242;28;20549;-90
2021/11/14 10:29:12;;;;;;;12.50;11.30;;;11.70;99.90;;;;;;5051481;28;20474;-90
2021/11/14 10:31:39;;;;;;;13.53;12.37;;;11.50;99.90;;;;;;5035845;28;20430;-88
2021/11/14 10:37:21;;;;;;;13.23;12.13;;;11.50;99.90;;;;;;5049154;28;20431;-89
2021/11/14 10:39:55;;;;;;;14.07;12.77;;;10.70;99.90;;;;;;5033777;28;20415;-88
2021/11/14 10:42:53;;;;;;;15.10;13.53;;;11.20;99.90;;;;;;5035661;28;20497;-91
2021/11/14 10:45:23;;;;;;;15.93;14.43;;;11.10;99.90;;;;;;5032899;28;20411;-91
2021/11/14 10:48:00;;;;;;;14.43;13.23;;;10.70;99.90;;;;;;5018588;28;20445;-87
2021/11/14 10:51:03;;;;;;;16.58;14.55;;;11.00;99.90;;;;;;5050005;28;20407;-89
2021/11/14 10:53:36;;;;;;;14.77;13.57;;;11.40;99.90;;;;;;5047303;28;20179;-90
2021/11/14 10:56:11;;;;;;;15.37;13.77;;;16.30;99.90;;;;;;5051918;28;20430;-86
2021/11/14 10:58:44;;;;;;;15.13;13.57;;;12.50;99.90;;;;;;5035384;28;20418;-89
2021/11/14 11:01:17;;;;;;;14.07;12.67;;;13.70;99.90;;;;;;5051645;28;20442;-90
2021/11/14 11:03:56;;;;;;;13.23;12.00;;;15.30;99.90;;;;;;5064222;28;20477;-90
2021/11/14 11:06:31;;;;;;;15.48;13.43;;;;;;;;;;5056470;28;20474;-87
2021/11/14 11:09:07;;;;;;;13.07;11.93;;;11.10;99.90;;;;;;5065801;28;20231;-87
2021/11/14 11:12:14;;;;;;;13.83;12.53;;;11.80;99.90;;;;;;5073438;28;20413;-87
2021/11/14 11:15:10;;;;;;;14.13;12.70;;;10.90;99.90;;;;;;5071260;28;20457;-88
2021/11/14 11:17:51;;;;;;;12.43;11.50;;;11.20;99.90;;;;;;5039823;28;20171;-89
2021/11/14 11:20:29;;;;;;;11.87;10.73;;;13.40;99.90;;;;;;5070310;28;20425;-91
2021/11/14 11:23:27;;;;;;;12.13;11.03;;;11.00;99.90;;;;;;5073140;28;20409;-87
2021/11/14 11:26:15;;;;;;;11.40;10.40;;;11.70;99.90;;;;;;5071205;28;20533;-87
2021/11/14 11:28:47;;;;;;;13.40;11.40;;;12.20;99.90;;;;;;5054402;28;20485;-84
2021/11/14 11:31:22;;;;;;;11.43;10.43;;;12.10;99.90;;;;;;5035814;28;20508;-86
2021/11/14 11:33:50;;;;;;;11.70;10.60;;;10.80;99.90;;;;;;5054261;28;20429;-84
2021/11/14 11:36:16;;;;;;;9.63;8.87;;;10.90;99.90;;;;;;5053218;28;20791;-85
2021/11/14 11:38:45;;;;;;;12.47;11.27;;;12.40;99.90;;;;;;5053612;28;20422;-85
2021/11/14 11:41:12;;;;;;;11.37;10.37;;;12.70;99.90;;;;;;5053293;28;20468;-85
2021/11/14 11:43:39;;;;;;;12.07;10.97;;;12.60;99.90;;;;;;5053300;28;20754;-85
2021/11/14 11:46:13;;;;;;;14.60;13.20;;;11.80;99.90;;;;;;5018752;28;20548;-85
2021/11/14 11:48:40;;;;;;;11.80;10.70;;;12.50;99.90;;;;;;5035314;28;20417;-84
2021/11/14 11:51:10;;;;;;;11.10;10.20;;;12.80;99.90;;;;;;5054192;28;20401;-84
2021/11/14 11:53:38;;;;;;;11.70;10.60;;;13.10;99.90;;;;;;5053243;28;20414;-85
2021/11/14 11:56:09;;;;;;;12.13;11.03;;;11.90;99.90;;;;;;5052936;28;20432;-84
2021/11/14 11:58:41;;;;;;;12.40;11.20;;;12.60;99.90;;;;;;5035183;28;20929;-86
2021/11/14 12:01:18;;;;;;;16.17;11.10;;;11.70;99.90;;;;;;5035162;28;20406;-85
2021/11/14 12:03:43;;;;;;;13.00;11.70;;;12.20;99.90;;;;;;5053448;28;20449;-86
2021/11/14 12:06:24;;;;;;;12.17;11.07;;;12.40;99.90;;;;;;5035245;28;20461;-85
2021/11/14 12:08:59;;;;;;;12.47;11.37;;;12.40;99.90;;;;;;5053450;28;20159;-85
2021/11/14 12:11:37;;;;;;;11.50;10.40;;;12.00;99.90;;;;;;5035174;28;20515;-85
2021/11/14 12:14:19;;;;;;;12.27;10.97;;;11.80;99.90;;;;;;5053050;28;20412;-86
2021/11/14 12:17:00;;;;;;;11.83;10.80;;;12.00;99.90;;;;;;5052537;28;20504;-87
2021/11/14 12:19:27;;;;;;;11.60;10.43;;;12.10;99.90;;;;;;5034891;28;20432;-86
2021/11/14 12:22:13;;;;;;;11.80;10.60;;;11.90;99.90;;;;;;5052832;28;20432;-86
2021/11/14 12:24:51;;;;;;;10.33;9.33;;;11.80;99.90;;;;;;5053059;28;20460;-83
2021/11/14 12:27:28;;;;;;;9.53;8.70;;;11.70;99.90;;;;;;5053294;28;20469;-85
2021/11/14 12:30:05;;;;;;;10.97;9.93;;;11.80;99.90;;;;;;5033885;28;20452;-85
2021/11/14 12:32:50;;;;;;;8.90;8.17;;;13.40;99.90;;;;;;5053101;28;20780;-84
2021/11/14 12:35:30;;;;;;;9.23;8.43;;;12.30;99.90;;;;;;5034876;28;20472;-85
2021/11/14 12:38:00;;;;;;;9.40;8.50;;;12.80;99.90;;;;;;5034461;28;20433;-85
2021/11/14 12:40:45;;;;;;;10.23;9.07;;;12.90;99.90;;;;;;5052532;28;20881;-85
2021/11/14 12:43:13;;;;;;;12.47;10.83;;;13.00;99.90;;;;;;5053802;28;20500;-85
2021/11/14 12:45:59;;;;;;;9.97;9.17;;;13.00;99.90;;;;;;5052421;28;20457;-85
2021/11/14 12:48:30;;;;;;;9.67;8.87;;;13.10;99.90;;;;;;5055931;28;20410;-86
2021/11/14 12:51:14;;;;;;;9.33;8.63;;;13.00;99.90;;;;;;5057185;28;20406;-84
2021/11/14 12:54:08;;;;;;;9.03;8.43;;;12.70;99.90;;;;;;5056651;28;20527;-84
2021/11/14 12:56:40;;;;;;;12.30;9.37;;;12.50;99.90;;;;;;5025149;28;20473;-85
2021/11/14 12:59:15;;;;;;;9.50;8.70;;;12.10;99.90;;;;;;5056446;28;20405;-85
2021/11/14 13:01:42;;;;;;;9.77;8.97;;;11.80;99.90;;;;;;5038152;28;20405;-85
2021/11/14 13:04:26;;;;;;;10.43;9.43;;;12.30;99.90;;;;;;5056186;28;20458;-85
2021/11/14 13:06:54;;;;;;;10.50;9.50;;;12.70;99.90;;;;;;5056497;28;20483;-84
2021/11/14 13:09:22;;;;;;;7.90;7.20;;;12.50;99.90;;;;;;5056247;28;20417;-83
2021/11/14 13:12:17;;;;;;;9.13;8.30;;;12.70;99.90;;;;;;5056231;28;20475;-85
2021/11/14 13:14:43;;;;;;;8.77;8.17;;;12.50;99.90;;;;;;5056021;28;20446;-86
2021/11/14 13:17:10;;;;;;;7.80;7.20;;;12.50;99.90;;;;;;5037871;28;20879;-84
2021/11/14 13:19:38;;;;;;;9.40;8.50;;;12.50;99.90;;;;;;5057130;28;20168;-82
2021/11/14 13:22:04;;;;;;;9.20;8.40;;;13.10;99.90;;;;;;5039140;28;20998;-85
2021/11/14 13:24:30;;;;;;;8.27;7.67;;;12.40;99.90;;;;;;5057209;28;20493;-85
2021/11/14 13:27:09;;;;;;;7.60;6.90;;;12.30;99.90;;;;;;5055761;28;20818;-85
2021/11/14 13:29:40;;;;;;;8.97;8.17;;;12.30;99.90;;;;;;5056018;28;20159;-85
2021/11/14 13:32:09;;;;;;;8.80;8.00;;;12.00;99.90;;;;;;5055834;28;20413;-84
2021/11/14 13:34:36;;;;;;;7.90;7.13;;;11.90;99.90;;;;;;5038000;28;20417;-85
2021/11/14 13:37:06;;;;;;;9.90;9.03;;;10.30;99.90;;;;;;5056091;28;20424;-85
2021/11/14 13:39:39;;;;;;;9.00;8.30;;;10.90;99.90;;;;;;5055825;28;20416;-83
2021/11/14 13:42:11;;;;;;;9.53;8.70;;;11.50;99.90;;;;;;5055677;28;20435;-85